Terminal Aerodrome Forecast
Issued by NWS Albany, NY

Home | Current Version | Previous Version | Text Only | Print | Product List | Glossary On
Versions: 1 2 3 4 5 6 7 8 9 10 11 12 13 14 15 16 17 18 19 20 21 22 23 24 25 26 27 28 29 30 31 32 33 34 35 36 37 38 39 40 41 42 43 44 45 46 47 48 49 50
000
FTUS41 KALY 211907 AAA
TAFPOU
TAF AMD
KPOU 211907Z 2119/2218 15007KT P6SM VCSH BKN050 OVC090
     FM212100 18005KT P6SM SCT025 BKN040
     FM220000 VRB03KT P6SM SCT020 BKN035
     FM220400 00000KT P6SM OVC020
     FM221500 02005KT P6SM SCT020 OVC035=

USA.gov is the U.S. government's official web portal to all federal, state and local government web resources and services.